• Join FlightAware (Why Join?)
  • Login
  • US Flag 
02:22AM EDT


 

Airport Tracker/Info


-or-


 

Live Flight TrackerFlight Track Log ✈ SWA546 ✈ 18-May-2013 ✈ KCMH - KTPA

Flight Track Log - Related Links

Times and Time Zones

All times are in EDT time to prevent confusion due to time zone crossing. See the SWA546 flight status page for this flight to view local times or setup timezone preferences in your user account.

Time Position Orientation Groundspeed Altitude Reporting Facility
EDT Latitude Longitude Course Direction KTS MPH feet Rate Location/Type
06:56AM 39.9964 -82.9094 267° West 155 178 1,300  Level Indianapolis Center
06:56AM 39.9958 -82.9219 267° West 192 221 1,600 1,560 Climbing Indianapolis Center
06:56AM 39.9969 -82.9611 272° West 186 214 2,600 2,160 Climbing Indianapolis Center
06:57AM 39.9992 -82.9956 275° West 203 234 3,800 2,460 Climbing Indianapolis Center
06:58AM 39.9442 -82.9981 182° South 221 254 6,500 2,520 Climbing Indianapolis Center
06:59AM 39.8789 -82.9586 155° Southeast 253 291 8,900 2,160 Climbing Indianapolis Center
07:00AM 39.7975 -82.9389 169° South 292 336 10,900 2,520 Climbing Indianapolis Center
07:01AM 39.7022 -82.9175 170° South 337 388 14,100 3,120 Climbing Indianapolis Center
07:02AM 39.6028 -82.8950 170° South 354 407 17,200 2,820 Climbing Indianapolis Center
07:03AM 39.4983 -82.8725 171° South 373 429 19,800 2,580 Climbing Indianapolis Center
07:04AM 39.3897 -82.8469 170° South 388 447 22,500 2,460 Climbing Indianapolis Center
07:05AM 39.2767 -82.8222 170° South 404 465 24,800 2,220 Climbing Indianapolis Center
07:06AM 39.1567 -82.7944 170° South 414 476 27,000 1,920 Climbing Indianapolis Center
07:07AM 39.0394 -82.7678 170° South 427 491 28,800 1,680 Climbing Indianapolis Center
07:08AM 38.9156 -82.7406 170° South 448 516 30,400 1,680 Climbing Indianapolis Center
07:09AM 38.7897 -82.7147 171° South 457 526 32,200 1,620 Climbing Indianapolis Center
07:10AM 38.6644 -82.6858 170° South 459 528 33,800 1,680 Climbing Indianapolis Center
07:11AM 38.5292 -82.6558 170° South 458 527 35,700 1,680 Climbing Indianapolis Center
07:12AM 38.4044 -82.6283 170° South 454 522 37,300 1,320 Climbing Indianapolis Center
07:13AM 38.2794 -82.6011 170° South 455 524 38,400 780 Climbing Indianapolis Center
07:14AM 38.1561 -82.5736 170° South 452 520 39,000 240 Climbing Indianapolis Center
07:15AM 38.0350 -82.5497 171° South 441 507 39,000  Level Indianapolis Center
07:16AM 37.9106 -82.5228 170° South 448 516 39,000  Level Indianapolis Center
07:17AM 37.7878 -82.4953 170° South 447 514 39,000  Level Indianapolis Center
07:18AM 37.6633 -82.4681 170° South 452 520 39,000  Level Indianapolis Center
07:19AM 37.5403 -82.4428 171° South 446 513 39,000  Level Indianapolis Center
07:20AM 37.4178 -82.4178 171° South 443 510 39,000  Level Indianapolis Center
07:21AM 37.2958 -82.3911 170° South 443 510 39,000  Level Indianapolis Center
07:22AM 37.2167 -82.3733 170° South 455 524 39,000  Level Atlanta Center
07:23AM 37.0956 -82.3475 170° South 450 518 39,000  Level Atlanta Center
07:24AM 36.9889 -82.3264 171° South 444 511 39,000  Level Atlanta Center
07:25AM 36.8656 -82.3108 174° South 444 511 39,000 420 Level Atlanta Center
07:26AM 36.7469 -82.3158 182° South 444 511 39,900 480 Climbing Atlanta Center
07:27AM 36.6239 -82.3239 183° South 438 504 40,000  Climbing Atlanta Center
07:28AM 36.5011 -82.3264 181° South 438 504 40,000  Level Atlanta Center
07:29AM 36.3758 -82.3317 182° South 443 510 40,000  Level Atlanta Center
07:30AM 36.2572 -82.3394 183° South 437 503 40,000  Level Atlanta Center
07:31AM 36.1342 -82.3419 181° South 437 503 40,000  Level Atlanta Center
07:32AM 36.0092 -82.3497 183° South 437 503 40,000  Level Atlanta Center
07:33AM 35.8778 -82.3550 182° South 442 509 40,000  Level Atlanta Center
07:34AM 35.7547 -82.3600 182° South 442 509 40,000  Level Atlanta Center
07:35AM 35.6358 -82.3678 183° South 437 503 40,000  Level Atlanta Center
07:36AM 35.5150 -82.3725 182° South 437 503 40,000  Level Atlanta Center
07:37AM 35.3942 -82.3750 181° South 437 503 40,000  Level Atlanta Center
07:38AM 35.2731 -82.3825 183° South 437 503 40,000  Level Atlanta Center
07:39AM 35.1564 -82.3875 182° South 437 503 40,000  Level Atlanta Center
07:40AM 35.0353 -82.3925 182° South 437 503 40,000  Level Atlanta Center
07:41AM 34.9164 -82.3922 180° South 437 503 40,000  Level Atlanta Center
07:42AM 34.7975 -82.3972 182° South 437 503 40,000  Level Atlanta Center
07:43AM 34.6725 -82.4022 182° South 443 510 40,000  Level Atlanta Center
07:44AM 34.5536 -82.4069 182° South 443 510 40,000  Level Atlanta Center
07:45AM 34.4325 -82.4119 182° South 438 504 40,000  Level Atlanta Center
07:46AM 34.3094 -82.4167 182° South 438 504 40,000  Level Atlanta Center
07:47AM 34.1886 -82.4217 182° South 438 504 40,000  Level Atlanta Center
07:48AM 34.0653 -82.4239 181° South 445 512 40,000  Level Atlanta Center
07:49AM 33.9381 -82.4289 182° South 445 512 40,000  Level Atlanta Center
07:50AM 33.8131 -82.4336 182° South 456 525 40,000  Level Atlanta Center
07:51AM 33.7025 -82.4383 182° South 451 519 40,000  Level Atlanta Center
07:52AM 33.5794 -82.4431 182° South 451 519 40,000  Level Atlanta Center
07:53AM 33.4561 -82.4478 182° South 451 519 40,000  Level Atlanta Center
07:54AM 33.3289 -82.4525 182° South 456 525 40,000  Level Atlanta Center
07:55AM 33.2039 -82.4575 182° South 456 525 40,000  Level Atlanta Center
07:56AM 33.0661 -82.4622 182° South 456 525 40,000  Level Atlanta Center
07:57AM 32.9367 -82.4672 182° South 461 531 40,000  Level Atlanta Center
07:59AM 32.7044 -82.4753 182° South 463 533 40,000  Level Jacksonville Center
08:00AM 32.5750 -82.4783 181° South 458 527 40,000 -840 Level Jacksonville Center
08:01AM 32.4478 -82.4839 182° South 458 527 38,400 -1,020 Descending Jacksonville Center
08:02AM 32.3286 -82.4869 181° South 452 520 38,000 -240 Descending Jacksonville Center
08:03AM 32.2014 -82.4925 182° South 452 520 38,000  Level Jacksonville Center
08:04AM 32.0783 -82.4953 181° South 452 520 38,000  Level Jacksonville Center
08:05AM 31.9531 -82.5008 182° South 452 520 38,000  Level Jacksonville Center
08:06AM 31.8256 -82.5061 182° South 452 520 38,000  Level Jacksonville Center
08:07AM 31.7044 -82.4969 176° South 457 526 38,000  Level Jacksonville Center
08:08AM 31.5772 -82.4903 177° South 452 520 38,000  Level Jacksonville Center
08:09AM 31.4539 -82.4786 175° South 452 520 38,000  Level Jacksonville Center
08:10AM 31.3306 -82.4767 179° South 452 520 38,000  Level Jacksonville Center
08:11AM 31.2053 -82.4675 176° South 452 520 38,000  Level Jacksonville Center
08:12AM 31.0842 -82.4583 176° South 452 520 38,000  Level Jacksonville Center
08:13AM 30.9589 -82.4517 177° South 447 514 38,000  Level Jacksonville Center
08:14AM 30.8378 -82.4425 176° South 441 507 38,000  Level Jacksonville Center
08:15AM 30.7147 -82.4358 177° South 441 507 38,000  Level Jacksonville Center
08:16AM 30.5872 -82.4244 176° South 446 513 38,000  Level Jacksonville Center
08:17AM 30.4639 -82.4178 177° South 446 513 38,000  Level Jacksonville Center
08:18AM 30.3386 -82.4089 176° South 446 513 38,000 -60 Level Jacksonville Center
08:19AM 30.2133 -82.3997 176° South 446 513 37,900 -1,200 Descending Jacksonville Center
08:20AM 30.0881 -82.3933 177° South 451 519 35,700 -2,400 Descending Jacksonville Center
08:21AM 29.9647 -82.3842 176° South 451 519 33,200 -2,280 Descending Jacksonville Center
08:22AM 29.8458 -82.3753 176° South 439 505 31,200 -2,040 Descending Jacksonville Center
08:23AM 29.7206 -82.3664 176° South 433 498 29,200 -1,980 Descending Jacksonville Center
08:24AM 29.6078 -82.3600 177° South 422 486 27,300 -1,140 Descending Jacksonville Center
08:25AM 29.4950 -82.3486 175° South 412 474 27,000 -1,620 Descending Jacksonville Center
08:26AM 29.3822 -82.3350 174° South 412 474 24,100 -2,460 Descending Jacksonville Center
08:27AM 29.2672 -82.3214 174° South 412 474 22,100 -1,980 Descending Jacksonville Center
08:28AM 29.1586 -82.3100 175° South 412 474 20,200 -1,860 Descending Jacksonville Center
08:29AM 29.0542 -82.2964 174° South 393 452 18,400 -1,740 Descending Jacksonville Center
08:30AM 28.9561 -82.2850 174° South 380 437 16,800 -1,740 Descending Jacksonville Center
08:31AM 28.8683 -82.2739 174° South 361 415 15,000 -1,440 Descending Jacksonville Center
08:33AM 28.6333 -82.2500 175° South 313 360 12,000 -1,260 Descending Tampa TRACON
08:34AM 28.5667 -82.2500 180° South 312 359 11,000 -960 Descending Tampa TRACON
08:35AM 28.4833 -82.2500 180° South 305 351 10,300 -1,080 Descending Tampa TRACON
08:36AM 28.4000 -82.2500 180° South 303 349 8,900 -1,440 Descending Tampa TRACON
08:37AM 28.3333 -82.2833 204° Southwest 292 336 7,600 -1,440 Descending Tampa TRACON
08:38AM 28.2833 -82.3833 240° Southwest 279 321 5,800 -1,560 Descending Tampa TRACON
08:39AM 28.2333 -82.4500 230° Southwest 267 307 4,100 -1,560 Descending Tampa TRACON
08:40AM 28.1833 -82.4833 210° Southwest 261 300 2,900 -720 Descending Tampa TRACON
08:41AM 28.1500 -82.5167 221° Southwest 204 235 2,900 -540 Level Tampa TRACON
08:42AM 28.0833 -82.5333 192° South 191 220 1,900 -1,020 Descending Tampa TRACON